sensor_id;sensor_type;location;lat;lon;timestamp;temperature;humidity
31369;DHT22;18004;48.416;10.066;2022-09-25T00:00:27;11.30;99.90
31369;DHT22;18004;48.416;10.066;2022-09-25T00:02:53;11.30;99.90
31369;DHT22;18004;48.416;10.066;2022-09-25T00:05:19;11.30;99.90
31369;DHT22;18004;48.416;10.066;2022-09-25T00:07:45;11.20;99.90
31369;DHT22;18004;48.416;10.066;2022-09-25T00:10:11;11.20;99.90
31369;DHT22;18004;48.416;10.066;2022-09-25T00:12:36;11.20;99.90
31369;DHT22;18004;48.416;10.066;2022-09-25T00:15:03;11.20;99.90
31369;DHT22;18004;48.416;10.066;2022-09-25T00:17:29;11.20;99.90
31369;DHT22;18004;48.416;10.066;2022-09-25T00:19:54;11.20;99.90
31369;DHT22;18004;48.416;10.066;2022-09-25T00:22:21;11.20;99.90
31369;DHT22;18004;48.416;10.066;2022-09-25T00:24:47;11.20;99.90
31369;DHT22;18004;48.416;10.066;2022-09-25T00:27:13;11.20;99.90
31369;DHT22;18004;48.416;10.066;2022-09-25T00:29:39;11.10;99.90
31369;DHT22;18004;48.416;10.066;2022-09-25T00:32:05;11.10;99.90
31369;DHT22;18004;48.416;10.066;2022-09-25T00:34:32;11.10;99.90
31369;DHT22;18004;48.416;10.066;2022-09-25T00:36:57;11.00;99.90
31369;DHT22;18004;48.416;10.066;2022-09-25T00:39:23;11.10;99.90
31369;DHT22;18004;48.416;10.066;2022-09-25T00:41:49;11.10;99.90
31369;DHT22;18004;48.416;10.066;2022-09-25T00:46:59;11.10;99.90
31369;DHT22;18004;48.416;10.066;2022-09-25T00:49:24;11.10;99.90
31369;DHT22;18004;48.416;10.066;2022-09-25T00:51:52;11.10;99.90
31369;DHT22;18004;48.416;10.066;2022-09-25T00:54:24;11.20;99.90
31369;DHT22;18004;48.416;10.066;2022-09-25T00:56:52;11.10;99.90
31369;DHT22;18004;48.416;10.066;2022-09-25T00:59:20;11.20;99.90
31369;DHT22;18004;48.416;10.066;2022-09-25T01:01:47;11.20;99.90
31369;DHT22;18004;48.416;10.066;2022-09-25T01:04:13;11.30;99.90
31369;DHT22;18004;48.416;10.066;2022-09-25T01:06:39;11.40;99.90
31369;DHT22;18004;48.416;10.066;2022-09-25T01:09:05;11.40;99.90
31369;DHT22;18004;48.416;10.066;2022-09-25T01:11:31;11.40;99.90
31369;DHT22;18004;48.416;10.066;2022-09-25T01:13:57;11.40;99.90
31369;DHT22;18004;48.416;10.066;2022-09-25T01:16:41;11.30;99.90
31369;DHT22;18004;48.416;10.066;2022-09-25T01:27:08;11.30;99.90
31369;DHT22;18004;48.416;10.066;2022-09-25T01:30:02;11.30;99.90
31369;DHT22;18004;48.416;10.066;2022-09-25T01:39:46;11.40;99.90
31369;DHT22;18004;48.416;10.066;2022-09-25T01:42:20;11.40;99.90
31369;DHT22;18004;48.416;10.066;2022-09-25T01:44:52;11.40;99.90
31369;DHT22;18004;48.416;10.066;2022-09-25T01:47:22;11.40;99.90
31369;DHT22;18004;48.416;10.066;2022-09-25T01:49:51;11.40;99.90
31369;DHT22;18004;48.416;10.066;2022-09-25T01:52:18;11.40;99.90
31369;DHT22;18004;48.416;10.066;2022-09-25T01:54:48;11.40;99.90
31369;DHT22;18004;48.416;10.066;2022-09-25T01:57:23;11.40;99.90
31369;DHT22;18004;48.416;10.066;2022-09-25T01:59:55;11.40;99.90
31369;DHT22;18004;48.416;10.066;2022-09-25T02:02:26;11.50;99.90
31369;DHT22;18004;48.416;10.066;2022-09-25T02:04:57;11.50;99.90
31369;DHT22;18004;48.416;10.066;2022-09-25T02:07:26;11.50;99.90
31369;DHT22;18004;48.416;10.066;2022-09-25T02:09:55;11.50;99.90
31369;DHT22;18004;48.416;10.066;2022-09-25T02:12:23;11.50;99.90
31369;DHT22;18004;48.416;10.066;2022-09-25T02:14:52;11.50;99.90
31369;DHT22;18004;48.416;10.066;2022-09-25T02:17:28;11.50;99.90
31369;DHT22;18004;48.416;10.066;2022-09-25T02:20:20;11.50;99.90
31369;DHT22;18004;48.416;10.066;2022-09-25T02:23:07;11.50;99.90
31369;DHT22;18004;48.416;10.066;2022-09-25T02:25:39;11.50;99.90
31369;DHT22;18004;48.416;10.066;2022-09-25T02:28:06;11.50;99.90
31369;DHT22;18004;48.416;10.066;2022-09-25T02:30:32;11.50;99.90
31369;DHT22;18004;48.416;10.066;2022-09-25T02:32:57;11.50;99.90
31369;DHT22;18004;48.416;10.066;2022-09-25T02:35:24;11.50;99.90
31369;DHT22;18004;48.416;10.066;2022-09-25T02:37:49;11.50;99.90
31369;DHT22;18004;48.416;10.066;2022-09-25T02:40:15;11.40;99.90
31369;DHT22;18004;48.416;10.066;2022-09-25T02:50:27;11.40;99.90
31369;DHT22;18004;48.416;10.066;2022-09-25T02:55:43;11.50;99.90
31369;DHT22;18004;48.416;10.066;2022-09-25T02:58:12;11.50;99.90
31369;DHT22;18004;48.416;10.066;2022-09-25T03:00:40;11.50;99.90
31369;DHT22;18004;48.416;10.066;2022-09-25T03:03:07;11.50;99.90
31369;DHT22;18004;48.416;10.066;2022-09-25T03:05:34;11.40;99.90
31369;DHT22;18004;48.416;10.066;2022-09-25T03:08:01;11.50;99.90
31369;DHT22;18004;48.416;10.066;2022-09-25T03:11:05;11.50;99.90
31369;DHT22;18004;48.416;10.066;2022-09-25T03:13:32;11.50;99.90
31369;DHT22;18004;48.416;10.066;2022-09-25T03:15:59;11.60;99.90
31369;DHT22;18004;48.416;10.066;2022-09-25T03:18:26;11.50;99.90
31369;DHT22;18004;48.416;10.066;2022-09-25T03:20:52;11.50;99.90
31369;DHT22;18004;48.416;10.066;2022-09-25T03:23:18;11.50;99.90
31369;DHT22;18004;48.416;10.066;2022-09-25T03:25:44;11.40;99.90
31369;DHT22;18004;48.416;10.066;2022-09-25T03:28:10;11.40;99.90
31369;DHT22;18004;48.416;10.066;2022-09-25T03:30:36;11.40;99.90
31369;DHT22;18004;48.416;10.066;2022-09-25T03:33:08;11.40;99.90
31369;DHT22;18004;48.416;10.066;2022-09-25T03:35:35;11.40;99.90
31369;DHT22;18004;48.416;10.066;2022-09-25T03:38:00;11.40;99.90
31369;DHT22;18004;48.416;10.066;2022-09-25T03:40:26;11.40;99.90
31369;DHT22;18004;48.416;10.066;2022-09-25T03:42:52;11.50;99.90
31369;DHT22;18004;48.416;10.066;2022-09-25T03:45:18;11.50;99.90
31369;DHT22;18004;48.416;10.066;2022-09-25T03:47:43;11.50;99.90
31369;DHT22;18004;48.416;10.066;2022-09-25T03:50:09;11.60;99.90
31369;DHT22;18004;48.416;10.066;2022-09-25T03:52:34;11.50;99.90
31369;DHT22;18004;48.416;10.066;2022-09-25T03:55:00;11.50;99.90
31369;DHT22;18004;48.416;10.066;2022-09-25T03:57:26;11.50;99.90
31369;DHT22;18004;48.416;10.066;2022-09-25T03:59:52;11.40;99.90
31369;DHT22;18004;48.416;10.066;2022-09-25T04:02:17;11.30;99.90
31369;DHT22;18004;48.416;10.066;2022-09-25T04:04:44;11.20;99.90
31369;DHT22;18004;48.416;10.066;2022-09-25T04:07:10;11.20;99.90
31369;DHT22;18004;48.416;10.066;2022-09-25T04:09:36;11.20;99.90
31369;DHT22;18004;48.416;10.066;2022-09-25T04:12:02;11.20;99.90
31369;DHT22;18004;48.416;10.066;2022-09-25T04:14:29;11.20;99.90
31369;DHT22;18004;48.416;10.066;2022-09-25T04:16:56;11.20;99.90
31369;DHT22;18004;48.416;10.066;2022-09-25T04:19:21;11.10;99.90
31369;DHT22;18004;48.416;10.066;2022-09-25T04:21:47;11.20;99.90
31369;DHT22;18004;48.416;10.066;2022-09-25T04:24:13;11.30;99.90
31369;DHT22;18004;48.416;10.066;2022-09-25T04:26:57;11.30;99.90
31369;DHT22;18004;48.416;10.066;2022-09-25T04:29:22;11.30;99.90
31369;DHT22;18004;48.416;10.066;2022-09-25T04:31:48;11.40;99.90
31369;DHT22;18004;48.416;10.066;2022-09-25T04:34:34;11.40;99.90
31369;DHT22;18004;48.416;10.066;2022-09-25T04:36:59;11.40;99.90
31369;DHT22;18004;48.416;10.066;2022-09-25T04:39:25;11.50;99.90
31369;DHT22;18004;48.416;10.066;2022-09-25T04:41:51;11.50;99.90
31369;DHT22;18004;48.416;10.066;2022-09-25T04:44:17;11.50;99.90
31369;DHT22;18004;48.416;10.066;2022-09-25T04:46:42;11.50;99.90
31369;DHT22;18004;48.416;10.066;2022-09-25T04:49:08;11.50;99.90
31369;DHT22;18004;48.416;10.066;2022-09-25T04:51:34;11.50;99.90
31369;DHT22;18004;48.416;10.066;2022-09-25T04:53:59;11.50;99.90
31369;DHT22;18004;48.416;10.066;2022-09-25T04:56:25;11.50;99.90
31369;DHT22;18004;48.416;10.066;2022-09-25T04:58:51;11.50;99.90
31369;DHT22;18004;48.416;10.066;2022-09-25T05:01:17;11.50;99.90
31369;DHT22;18004;48.416;10.066;2022-09-25T05:03:46;11.60;99.90
31369;DHT22;18004;48.416;10.066;2022-09-25T05:06:11;11.50;99.90
31369;DHT22;18004;48.416;10.066;2022-09-25T05:08:37;11.60;99.90
31369;DHT22;18004;48.416;10.066;2022-09-25T05:11:03;11.50;99.90
31369;DHT22;18004;48.416;10.066;2022-09-25T05:13:28;11.50;99.90
31369;DHT22;18004;48.416;10.066;2022-09-25T05:15:54;11.50;99.90
31369;DHT22;18004;48.416;10.066;2022-09-25T05:18:21;11.50;99.90
31369;DHT22;18004;48.416;10.066;2022-09-25T05:20:48;11.50;99.90
31369;DHT22;18004;48.416;10.066;2022-09-25T05:23:14;11.50;99.90
31369;DHT22;18004;48.416;10.066;2022-09-25T05:25:40;11.50;99.90
31369;DHT22;18004;48.416;10.066;2022-09-25T05:28:05;11.50;99.90
31369;DHT22;18004;48.416;10.066;2022-09-25T05:30:32;11.50;99.90
31369;DHT22;18004;48.416;10.066;2022-09-25T05:32:58;11.50;99.90
31369;DHT22;18004;48.416;10.066;2022-09-25T05:35:25;11.50;99.90
31369;DHT22;18004;48.416;10.066;2022-09-25T05:37:51;11.60;99.90
31369;DHT22;18004;48.416;10.066;2022-09-25T05:40:17;11.60;99.90
31369;DHT22;18004;48.416;10.066;2022-09-25T05:42:43;11.60;99.90
31369;DHT22;18004;48.416;10.066;2022-09-25T05:45:09;11.60;99.90
31369;DHT22;18004;48.416;10.066;2022-09-25T05:47:35;11.60;99.90
31369;DHT22;18004;48.416;10.066;2022-09-25T05:50:01;11.70;99.90
31369;DHT22;18004;48.416;10.066;2022-09-25T05:52:29;11.60;99.90
31369;DHT22;18004;48.416;10.066;2022-09-25T05:54:54;11.60;99.90
31369;DHT22;18004;48.416;10.066;2022-09-25T05:57:21;11.60;99.90
31369;DHT22;18004;48.416;10.066;2022-09-25T05:59:48;11.60;99.90
31369;DHT22;18004;48.416;10.066;2022-09-25T06:02:14;11.60;99.90
31369;DHT22;18004;48.416;10.066;2022-09-25T06:04:40;11.60;99.90
31369;DHT22;18004;48.416;10.066;2022-09-25T06:07:05;11.60;99.90
31369;DHT22;18004;48.416;10.066;2022-09-25T06:09:31;11.70;99.90
31369;DHT22;18004;48.416;10.066;2022-09-25T06:11:57;11.70;99.90
31369;DHT22;18004;48.416;10.066;2022-09-25T06:14:22;11.70;99.90
31369;DHT22;18004;48.416;10.066;2022-09-25T06:16:48;11.70;99.90
31369;DHT22;18004;48.416;10.066;2022-09-25T06:19:16;11.70;99.90
31369;DHT22;18004;48.416;10.066;2022-09-25T06:21:42;11.70;99.90
31369;DHT22;18004;48.416;10.066;2022-09-25T06:24:08;11.70;99.90
31369;DHT22;18004;48.416;10.066;2022-09-25T06:26:37;11.70;99.90
31369;DHT22;18004;48.416;10.066;2022-09-25T06:29:02;11.70;99.90
31369;DHT22;18004;48.416;10.066;2022-09-25T06:31:28;11.70;99.90
31369;DHT22;18004;48.416;10.066;2022-09-25T06:33:54;11.70;99.90
31369;DHT22;18004;48.416;10.066;2022-09-25T06:36:20;11.70;99.90
31369;DHT22;18004;48.416;10.066;2022-09-25T06:38:45;11.70;99.90
31369;DHT22;18004;48.416;10.066;2022-09-25T06:41:11;11.70;99.90
31369;DHT22;18004;48.416;10.066;2022-09-25T06:43:37;11.70;99.90
31369;DHT22;18004;48.416;10.066;2022-09-25T06:46:02;11.70;99.90
31369;DHT22;18004;48.416;10.066;2022-09-25T06:48:28;11.70;99.90
31369;DHT22;18004;48.416;10.066;2022-09-25T06:50:55;11.70;99.90
31369;DHT22;18004;48.416;10.066;2022-09-25T06:53:22;11.70;99.90
31369;DHT22;18004;48.416;10.066;2022-09-25T06:55:48;11.60;99.90
31369;DHT22;18004;48.416;10.066;2022-09-25T06:58:15;11.60;99.90
31369;DHT22;18004;48.416;10.066;2022-09-25T07:00:44;11.60;99.90
31369;DHT22;18004;48.416;10.066;2022-09-25T07:03:10;11.60;99.90
31369;DHT22;18004;48.416;10.066;2022-09-25T07:05:58;11.70;99.90
31369;DHT22;18004;48.416;10.066;2022-09-25T07:08:24;11.70;99.90
31369;DHT22;18004;48.416;10.066;2022-09-25T07:10:50;11.70;99.90
31369;DHT22;18004;48.416;10.066;2022-09-25T07:13:17;11.60;99.90
31369;DHT22;18004;48.416;10.066;2022-09-25T07:15:49;11.70;99.90
31369;DHT22;18004;48.416;10.066;2022-09-25T07:18:14;11.70;99.90
31369;DHT22;18004;48.416;10.066;2022-09-25T07:20:40;11.70;99.90
31369;DHT22;18004;48.416;10.066;2022-09-25T07:23:06;11.80;99.90
31369;DHT22;18004;48.416;10.066;2022-09-25T07:25:31;11.80;99.90
31369;DHT22;18004;48.416;10.066;2022-09-25T07:27:57;11.70;99.90
31369;DHT22;18004;48.416;10.066;2022-09-25T07:30:25;11.70;99.90
31369;DHT22;18004;48.416;10.066;2022-09-25T07:32:51;11.80;99.90
31369;DHT22;18004;48.416;10.066;2022-09-25T07:35:17;11.80;99.90
31369;DHT22;18004;48.416;10.066;2022-09-25T07:37:43;11.80;99.90
31369;DHT22;18004;48.416;10.066;2022-09-25T07:40:09;11.90;99.90
31369;DHT22;18004;48.416;10.066;2022-09-25T07:42:37;11.90;99.90
31369;DHT22;18004;48.416;10.066;2022-09-25T07:45:03;12.00;99.90
31369;DHT22;18004;48.416;10.066;2022-09-25T07:47:29;12.00;99.90
31369;DHT22;18004;48.416;10.066;2022-09-25T07:49:54;12.00;99.90
31369;DHT22;18004;48.416;10.066;2022-09-25T07:52:20;12.00;99.90
31369;DHT22;18004;48.416;10.066;2022-09-25T07:54:46;12.00;99.90
31369;DHT22;18004;48.416;10.066;2022-09-25T07:57:12;12.00;99.90
31369;DHT22;18004;48.416;10.066;2022-09-25T07:59:38;12.00;99.90
31369;DHT22;18004;48.416;10.066;2022-09-25T08:02:04;12.00;99.90
31369;DHT22;18004;48.416;10.066;2022-09-25T08:04:30;11.90;99.90
31369;DHT22;18004;48.416;10.066;2022-09-25T08:06:59;11.90;99.90
31369;DHT22;18004;48.416;10.066;2022-09-25T08:09:24;12.00;99.90
31369;DHT22;18004;48.416;10.066;2022-09-25T08:11:50;12.10;99.90
31369;DHT22;18004;48.416;10.066;2022-09-25T08:14:16;12.20;99.90
31369;DHT22;18004;48.416;10.066;2022-09-25T08:16:42;12.30;99.90
31369;DHT22;18004;48.416;10.066;2022-09-25T08:19:09;12.30;99.90
31369;DHT22;18004;48.416;10.066;2022-09-25T08:21:34;12.40;99.90
31369;DHT22;18004;48.416;10.066;2022-09-25T08:24:00;12.50;99.90
31369;DHT22;18004;48.416;10.066;2022-09-25T08:26:26;12.70;99.90
31369;DHT22;18004;48.416;10.066;2022-09-25T08:28:53;12.80;99.90
31369;DHT22;18004;48.416;10.066;2022-09-25T08:31:19;12.90;99.90
31369;DHT22;18004;48.416;10.066;2022-09-25T08:33:54;13.00;99.90
31369;DHT22;18004;48.416;10.066;2022-09-25T08:36:20;13.10;99.90
31369;DHT22;18004;48.416;10.066;2022-09-25T08:38:46;13.10;99.90
31369;DHT22;18004;48.416;10.066;2022-09-25T08:41:31;13.20;99.90
31369;DHT22;18004;48.416;10.066;2022-09-25T08:44:00;13.20;99.90
31369;DHT22;18004;48.416;10.066;2022-09-25T08:46:33;13.30;99.90
31369;DHT22;18004;48.416;10.066;2022-09-25T08:49:18;13.20;99.90
31369;DHT22;18004;48.416;10.066;2022-09-25T08:51:47;13.20;99.90
31369;DHT22;18004;48.416;10.066;2022-09-25T08:54:16;13.20;99.90
31369;DHT22;18004;48.416;10.066;2022-09-25T08:56:43;13.30;99.90
31369;DHT22;18004;48.416;10.066;2022-09-25T09:01:45;13.30;99.90
31369;DHT22;18004;48.416;10.066;2022-09-25T09:06:51;13.40;99.90
31369;DHT22;18004;48.416;10.066;2022-09-25T09:09:26;13.50;99.90
31369;DHT22;18004;48.416;10.066;2022-09-25T09:12:14;13.60;99.90
31369;DHT22;18004;48.416;10.066;2022-09-25T09:14:48;13.60;99.90
31369;DHT22;18004;48.416;10.066;2022-09-25T09:17:16;13.80;99.90
31369;DHT22;18004;48.416;10.066;2022-09-25T09:20:10;14.00;99.90
31369;DHT22;18004;48.416;10.066;2022-09-25T09:22:34;14.00;99.90
31369;DHT22;18004;48.416;10.066;2022-09-25T09:25:04;14.00;99.90
31369;DHT22;18004;48.416;10.066;2022-09-25T09:30:18;14.00;99.90
31369;DHT22;18004;48.416;10.066;2022-09-25T09:35:29;14.20;99.90
31369;DHT22;18004;48.416;10.066;2022-09-25T09:48:42;14.90;99.90
31369;DHT22;18004;48.416;10.066;2022-09-25T09:51:11;15.00;99.90
31369;DHT22;18004;48.416;10.066;2022-09-25T09:53:40;15.10;99.90
31369;DHT22;18004;48.416;10.066;2022-09-25T09:56:11;14.90;99.90
31369;DHT22;18004;48.416;10.066;2022-09-25T09:58:44;15.00;99.90
31369;DHT22;18004;48.416;10.066;2022-09-25T10:01:11;15.10;99.90
31369;DHT22;18004;48.416;10.066;2022-09-25T10:03:38;15.20;99.90
31369;DHT22;18004;48.416;10.066;2022-09-25T10:06:07;15.30;99.90
31369;DHT22;18004;48.416;10.066;2022-09-25T10:08:36;15.40;99.90
31369;DHT22;18004;48.416;10.066;2022-09-25T10:11:08;15.30;99.90
31369;DHT22;18004;48.416;10.066;2022-09-25T10:13:36;15.50;99.90
31369;DHT22;18004;48.416;10.066;2022-09-25T10:16:04;15.60;99.70
31369;DHT22;18004;48.416;10.066;2022-09-25T10:18:33;15.60;98.90
31369;DHT22;18004;48.416;10.066;2022-09-25T10:21:03;15.90;99.30
31369;DHT22;18004;48.416;10.066;2022-09-25T10:28:56;16.20;97.10
31369;DHT22;18004;48.416;10.066;2022-09-25T10:31:22;16.40;95.30
31369;DHT22;18004;48.416;10.066;2022-09-25T10:33:58;16.30;95.30
31369;DHT22;18004;48.416;10.066;2022-09-25T10:36:29;16.40;95.70
31369;DHT22;18004;48.416;10.066;2022-09-25T10:38:55;16.90;97.20
31369;DHT22;18004;48.416;10.066;2022-09-25T10:41:21;17.20;93.60
31369;DHT22;18004;48.416;10.066;2022-09-25T10:43:53;17.30;93.90
31369;DHT22;18004;48.416;10.066;2022-09-25T10:46:29;17.50;93.40
31369;DHT22;18004;48.416;10.066;2022-09-25T10:49:18;17.60;92.90
31369;DHT22;18004;48.416;10.066;2022-09-25T10:52:05;17.70;91.30
31369;DHT22;18004;48.416;10.066;2022-09-25T10:54:31;18.10;88.50
31369;DHT22;18004;48.416;10.066;2022-09-25T10:56:57;18.40;85.00
31369;DHT22;18004;48.416;10.066;2022-09-25T10:59:24;18.50;85.20
31369;DHT22;18004;48.416;10.066;2022-09-25T11:01:50;18.50;82.00
31369;DHT22;18004;48.416;10.066;2022-09-25T11:06:50;18.50;75.50
31369;DHT22;18004;48.416;10.066;2022-09-25T11:09:17;18.60;77.40
31369;DHT22;18004;48.416;10.066;2022-09-25T11:11:44;18.60;77.40
31369;DHT22;18004;48.416;10.066;2022-09-25T11:16:48;18.60;79.00
31369;DHT22;18004;48.416;10.066;2022-09-25T11:19:16;18.70;77.90
31369;DHT22;18004;48.416;10.066;2022-09-25T11:21:54;18.70;78.90
31369;DHT22;18004;48.416;10.066;2022-09-25T11:24:31;18.70;77.40
31369;DHT22;18004;48.416;10.066;2022-09-25T11:43:12;17.10;96.80
31369;DHT22;18004;48.416;10.066;2022-09-25T11:45:44;17.10;96.40
31369;DHT22;18004;48.416;10.066;2022-09-25T11:48:15;17.00;95.50
31369;DHT22;18004;48.416;10.066;2022-09-25T12:01:18;16.30;96.30
31369;DHT22;18004;48.416;10.066;2022-09-25T12:03:50;16.40;96.10
31369;DHT22;18004;48.416;10.066;2022-09-25T12:06:35;16.40;98.70
31369;DHT22;18004;48.416;10.066;2022-09-25T12:11:34;16.00;98.60
31369;DHT22;18004;48.416;10.066;2022-09-25T12:14:20;15.90;99.90
31369;DHT22;18004;48.416;10.066;2022-09-25T12:19:43;16.10;99.90
31369;DHT22;18004;48.416;10.066;2022-09-25T12:27:10;16.00;99.90
31369;DHT22;18004;48.416;10.066;2022-09-25T12:29:50;16.00;99.90
31369;DHT22;18004;48.416;10.066;2022-09-25T12:32:28;16.00;99.90
31369;DHT22;18004;48.416;10.066;2022-09-25T12:35:14;16.10;99.90
31369;DHT22;18004;48.416;10.066;2022-09-25T12:40:43;16.20;99.80
31369;DHT22;18004;48.416;10.066;2022-09-25T12:45:53;16.20;99.90
31369;DHT22;18004;48.416;10.066;2022-09-25T12:48:32;16.20;99.90
31369;DHT22;18004;48.416;10.066;2022-09-25T12:51:16;16.20;99.10
31369;DHT22;18004;48.416;10.066;2022-09-25T12:53:52;16.20;98.70
31369;DHT22;18004;48.416;10.066;2022-09-25T12:56:28;16.20;99.40
31369;DHT22;18004;48.416;10.066;2022-09-25T13:01:34;16.20;99.00
31369;DHT22;18004;48.416;10.066;2022-09-25T13:06:33;16.50;99.90
31369;DHT22;18004;48.416;10.066;2022-09-25T13:09:05;16.50;99.10
31369;DHT22;18004;48.416;10.066;2022-09-25T13:11:37;16.60;99.00
31369;DHT22;18004;48.416;10.066;2022-09-25T13:14:06;16.50;96.50
31369;DHT22;18004;48.416;10.066;2022-09-25T13:16:35;16.70;99.90
31369;DHT22;18004;48.416;10.066;2022-09-25T13:21:46;16.80;98.10
31369;DHT22;18004;48.416;10.066;2022-09-25T13:24:13;16.90;99.80
31369;DHT22;18004;48.416;10.066;2022-09-25T13:26:42;16.90;99.60
31369;DHT22;18004;48.416;10.066;2022-09-25T13:29:22;16.90;98.40
31369;DHT22;18004;48.416;10.066;2022-09-25T13:31:48;17.20;97.60
31369;DHT22;18004;48.416;10.066;2022-09-25T13:34:14;17.30;95.60
31369;DHT22;18004;48.416;10.066;2022-09-25T13:39:26;17.10;95.60
31369;DHT22;18004;48.416;10.066;2022-09-25T13:42:13;17.00;96.50
31369;DHT22;18004;48.416;10.066;2022-09-25T13:55:33;17.20;94.80
31369;DHT22;18004;48.416;10.066;2022-09-25T14:00:24;17.00;93.90
31369;DHT22;18004;48.416;10.066;2022-09-25T14:02:51;17.00;94.80
31369;DHT22;18004;48.416;10.066;2022-09-25T14:05:25;17.00;93.90
31369;DHT22;18004;48.416;10.066;2022-09-25T14:08:01;16.80;94.30
31369;DHT22;18004;48.416;10.066;2022-09-25T14:10:28;16.60;95.50
31369;DHT22;18004;48.416;10.066;2022-09-25T14:12:54;16.80;97.10
31369;DHT22;18004;48.416;10.066;2022-09-25T14:17:49;16.60;94.90
31369;DHT22;18004;48.416;10.066;2022-09-25T14:20:26;16.40;97.40
31369;DHT22;18004;48.416;10.066;2022-09-25T14:22:54;16.50;95.80
31369;DHT22;18004;48.416;10.066;2022-09-25T14:25:31;16.20;96.20
31369;DHT22;18004;48.416;10.066;2022-09-25T14:27:57;16.30;99.70
31369;DHT22;18004;48.416;10.066;2022-09-25T14:30:23;16.50;99.20
31369;DHT22;18004;48.416;10.066;2022-09-25T14:33:00;16.30;97.50
31369;DHT22;18004;48.416;10.066;2022-09-25T14:40:35;16.00;97.80
31369;DHT22;18004;48.416;10.066;2022-09-25T14:43:15;16.00;97.90
31369;DHT22;18004;48.416;10.066;2022-09-25T14:45:59;15.90;96.40
31369;DHT22;18004;48.416;10.066;2022-09-25T14:48:32;15.80;95.10
31369;DHT22;18004;48.416;10.066;2022-09-25T14:51:03;15.50;92.60
31369;DHT22;18004;48.416;10.066;2022-09-25T14:53:32;15.50;93.50
31369;DHT22;18004;48.416;10.066;2022-09-25T14:55:59;15.40;92.20
31369;DHT22;18004;48.416;10.066;2022-09-25T14:58:27;15.30;91.10
31369;DHT22;18004;48.416;10.066;2022-09-25T15:00:55;15.30;92.90
31369;DHT22;18004;48.416;10.066;2022-09-25T15:03:24;15.40;92.10
31369;DHT22;18004;48.416;10.066;2022-09-25T15:05:51;15.40;91.70
31369;DHT22;18004;48.416;10.066;2022-09-25T15:11:02;15.50;91.10
31369;DHT22;18004;48.416;10.066;2022-09-25T15:13:28;15.50;90.70
31369;DHT22;18004;48.416;10.066;2022-09-25T15:15:59;15.50;90.20
31369;DHT22;18004;48.416;10.066;2022-09-25T15:18:45;15.50;89.70
31369;DHT22;18004;48.416;10.066;2022-09-25T15:21:16;15.40;88.10
31369;DHT22;18004;48.416;10.066;2022-09-25T15:23:44;15.50;87.40
31369;DHT22;18004;48.416;10.066;2022-09-25T15:26:12;15.30;89.40
31369;DHT22;18004;48.416;10.066;2022-09-25T15:28:41;15.40;90.00
31369;DHT22;18004;48.416;10.066;2022-09-25T15:31:08;15.40;88.70
31369;DHT22;18004;48.416;10.066;2022-09-25T15:33:34;15.40;90.60
31369;DHT22;18004;48.416;10.066;2022-09-25T15:36:03;15.60;90.70
31369;DHT22;18004;48.416;10.066;2022-09-25T15:38:33;15.60;90.30
31369;DHT22;18004;48.416;10.066;2022-09-25T15:41:00;15.50;89.30
31369;DHT22;18004;48.416;10.066;2022-09-25T15:43:26;15.30;90.10
31369;DHT22;18004;48.416;10.066;2022-09-25T15:46:23;15.40;90.60
31369;DHT22;18004;48.416;10.066;2022-09-25T15:48:50;15.30;90.80
31369;DHT22;18004;48.416;10.066;2022-09-25T15:51:18;15.30;91.50
31369;DHT22;18004;48.416;10.066;2022-09-25T15:53:51;15.40;91.80
31369;DHT22;18004;48.416;10.066;2022-09-25T15:56:27;15.40;91.80
31369;DHT22;18004;48.416;10.066;2022-09-25T15:58:55;15.40;91.60
31369;DHT22;18004;48.416;10.066;2022-09-25T16:01:22;15.30;90.90
31369;DHT22;18004;48.416;10.066;2022-09-25T16:04:08;15.20;91.50
31369;DHT22;18004;48.416;10.066;2022-09-25T16:06:53;15.20;92.40
31369;DHT22;18004;48.416;10.066;2022-09-25T16:11:47;15.10;92.30
31369;DHT22;18004;48.416;10.066;2022-09-25T16:16:46;15.00;92.20
31369;DHT22;18004;48.416;10.066;2022-09-25T16:19:25;14.90;92.90
31369;DHT22;18004;48.416;10.066;2022-09-25T16:21:52;14.80;92.90
31369;DHT22;18004;48.416;10.066;2022-09-25T16:24:19;14.70;93.50
31369;DHT22;18004;48.416;10.066;2022-09-25T16:26:45;14.60;93.10
31369;DHT22;18004;48.416;10.066;2022-09-25T16:31:42;14.40;94.20
31369;DHT22;18004;48.416;10.066;2022-09-25T16:36:43;14.40;94.60
31369;DHT22;18004;48.416;10.066;2022-09-25T16:39:10;14.50;94.70
31369;DHT22;18004;48.416;10.066;2022-09-25T16:41:38;14.30;94.60
31369;DHT22;18004;48.416;10.066;2022-09-25T16:46:43;14.40;93.20
31369;DHT22;18004;48.416;10.066;2022-09-25T16:49:08;14.60;93.90
31369;DHT22;18004;48.416;10.066;2022-09-25T16:51:36;14.70;93.60
31369;DHT22;18004;48.416;10.066;2022-09-25T16:54:02;14.60;92.20
31369;DHT22;18004;48.416;10.066;2022-09-25T16:56:29;14.50;92.00
31369;DHT22;18004;48.416;10.066;2022-09-25T16:58:55;14.40;91.80
31369;DHT22;18004;48.416;10.066;2022-09-25T17:01:21;14.30;93.00
31369;DHT22;18004;48.416;10.066;2022-09-25T17:03:48;14.20;92.80
31369;DHT22;18004;48.416;10.066;2022-09-25T17:06:21;14.20;93.50
31369;DHT22;18004;48.416;10.066;2022-09-25T17:08:47;14.20;93.60
31369;DHT22;18004;48.416;10.066;2022-09-25T17:11:13;14.00;93.60
31369;DHT22;18004;48.416;10.066;2022-09-25T17:13:39;13.90;94.50
31369;DHT22;18004;48.416;10.066;2022-09-25T17:16:06;13.80;94.40
31369;DHT22;18004;48.416;10.066;2022-09-25T17:18:32;13.70;95.10
31369;DHT22;18004;48.416;10.066;2022-09-25T17:20:58;13.70;95.20
31369;DHT22;18004;48.416;10.066;2022-09-25T17:23:25;13.50;95.90
31369;DHT22;18004;48.416;10.066;2022-09-25T17:25:54;13.50;95.90
31369;DHT22;18004;48.416;10.066;2022-09-25T17:28:24;13.50;96.10
31369;DHT22;18004;48.416;10.066;2022-09-25T17:30:50;13.50;96.20
31369;DHT22;18004;48.416;10.066;2022-09-25T17:33:17;13.40;96.30
31369;DHT22;18004;48.416;10.066;2022-09-25T17:35:45;13.40;96.40
31369;DHT22;18004;48.416;10.066;2022-09-25T17:38:12;13.40;96.60
31369;DHT22;18004;48.416;10.066;2022-09-25T17:40:38;13.40;96.50
31369;DHT22;18004;48.416;10.066;2022-09-25T17:43:05;13.40;96.80
31369;DHT22;18004;48.416;10.066;2022-09-25T17:45:34;13.40;97.20
31369;DHT22;18004;48.416;10.066;2022-09-25T17:48:01;13.40;96.90
31369;DHT22;18004;48.416;10.066;2022-09-25T17:50:27;13.30;97.30
31369;DHT22;18004;48.416;10.066;2022-09-25T17:52:54;13.40;97.00
31369;DHT22;18004;48.416;10.066;2022-09-25T17:55:20;13.40;97.10